Skip Navigation Links Skip Navigation Links

Current Weather

Quad City Intl, Moline, Ill.

For information only: do not use for flight planning or navigation.
Latest weather
Observation time Monday, October 18, 2021 3:52 PM CDT
Local time Monday, October 18, 2021 4:08 PM CDT
Flight conditions Visual Meteorological Conditions
Winds
Wind direction South-Southwest (210°)
Wind speed 6 mph
Visibility 10 mi.
Sky condition
Ceiling unlimited
Sky clear
Temperature 75°F
Dewpoint 48°F
Altimeter 30.03 in.Hg
Pressure change last 3 hours0.05 in.Hg
Pressure falling more slowly
Derived measurements
Relative humidity 39%
Density altitude 1664 ft.
Sea-level pressure 30.02 in.Hg
Remarks
System requires maintenance.
Automated weather observing station with precipitation discriminator.
METAR KMLI 182052Z 21005KT 10SM CLR 24/09 A3003 RMK AO2 SLP167 T02390089 56017 $

Settings

Location code

InnerDrive.Weather 4.0.6770.0 Release CLR 4.0.30319.42000
Copyright ©2018 Inner Drive Technology. All rights reserved. Portions Copyright ©1986-2018 David Braverman.

Find weather

Site navigation


Skip Navigation Links

Place info

Page info

PayPal - The safer, easier way to pay online!

Return home.

Copyright ©2021 Inner Drive Technology. Purveyors of fine, hand-crafted computer software. Page printed 2021-10-18T21:08:55 UTC.